Terminal Aerodrome Forecast
Issued by NWS

Home | Current Version | Previous Version | Text Only | Print | Product List | Glossary On
Versions: 1 2 3 4 5 6 7 8 9 10 11 12 13 14 15 16 17 18
000
FTUS46 KMFR 220550
TAFOTH
TAF
KOTH 220550Z 2206/2306 27017G25KT 5SM -RA BR SCT005 BKN010 OVC020
     FM220900 26012G20KT 5SM -SHRA BR SCT005 BKN015 OVC050
     FM221500 25017G25KT P6SM -SHRA BKN015 OVC030
     FM222000 27012G20KT P6SM -SHRA BKN025 OVC050
     FM230200 23007KT P6SM VCSH SCT025 BKN050=

USA.gov is the U.S. government's official web portal to all federal, state and local government web resources and services.